This is the latest recevied weather packets stored in our database for station/object N0YWB. If no packets are shown the sender has not sent any weather packets the latest 10 day(s).
| Time | Temp. | Humidity | Pressure | Rain* | Wind** | Luminosity | Snow |
|---|---|---|---|---|---|---|---|
| 1777616717 | 1.67° C | 88% | 1019.9 hPa | 0 mm | - | - | - |
| 1777612517 | 3.89° C | 79% | 1019.6 hPa | 0 mm | - | - | - |
| 1777611920 | 3.89° C | 77% | 1019.5 hPa | 0 mm | - | - | - |
| 1777607732 | 5.56° C | 70% | 1019.4 hPa | 0 mm | - | - | - |
| 1777605917 | 6.67° C | 68% | 1019.4 hPa | 0 mm | - | - | - |
| 1777597517 | 11.11° C | 56% | 1017.8 hPa | 0 mm | - | - | - |
| 1777590927 | 12.78° C | 53% | 1017.2 hPa | 0 mm | - | - | - |
| 1777589721 | 12.78° C | 57% | 1017.2 hPa | 0 mm | - | - | - |
| 1777587921 | 12.78° C | 61% | 1017 hPa | 0 mm | - | - | - |
| 1777586746 | 12.22° C | 63% | 1017 hPa | 0 mm | - | - | - |
| 1777577724 | 10.56° C | 83% | 1018.2 hPa | 0 mm | - | - | - |
| 1777569325 | 10° C | 99% | 1019 hPa | 0.25 mm | - | - | - |
| 1777564527 | 11.67° C | 81% | 1019.1 hPa | 0 mm | - | - | - |
| 1777563374 | 11.67° C | 80% | 1019.2 hPa | 0 mm | - | - | - |
| 1777558524 | 10.56° C | 83% | 1019.2 hPa | 0 mm | - | - | - |
| 1777555520 | 7.22° C | 91% | 1019 hPa | 0 mm | - | - | - |
| 1777553747 | 6.11° C | 99% | 1019.3 hPa | 0 mm | - | - | - |
| 1777548925 | 2.22° C | 99% | 1018.9 hPa | 0 mm | - | - | - |
| 1777544725 | 2.22° C | 99% | 1019.1 hPa | 0 mm | - | - | - |
| 1777542318 | 2.22° C | 99% | 1019.1 hPa | 0 mm | - | - | - |
| 1777536918 | 2.22° C | 99% | 1019.7 hPa | 0 mm | - | - | - |
| 1777535717 | 2.22° C | 99% | 1019.9 hPa | 0 mm | - | - | - |
| 1777529732 | 2.22° C | 98% | 1020.2 hPa | 0 mm | - | - | - |
| 1777526123 | 2.78° C | 96% | 1020.5 hPa | 0 mm | - | - | - |
| 1777524338 | 3.33° C | 96% | 1020.4 hPa | 0 mm | - | - | - |
* Rain latest hour (hover to see other rain measurements)
** Current wind speed in m/s (hover to see current wind gust speed)